Terminal Aerodrome Forecast
Issued by NWS Sterling, VA

Home | Current Version | Previous Version | Text Only | Print | Product List | Glossary On
Versions: 1 2 3 4 5 6 7 8 9 10 11 12 13 14 15 16 17
000
FTUS41 KLWX 010520
TAFCHO
TAF
KCHO 010520Z 0106/0206 00000KT 6SM BR SCT050 SCT100
     FM010900 00000KT 3SM BR VCSH SCT150
     FM011200 01005KT P6SM VCSH BKN050 OVC100
     FM020200 01004KT P6SM SCT045=

USA.gov is the U.S. government's official web portal to all federal, state and local government web resources and services.